Thunder radar more information blitzortung!


Radar de pluja more information rain snow radar


Visita la nostra xarxa de llocs de meteo:

Template documentation
and downloads

And another site



No particular awareness of the weather is required.    There are no Weather-warnings

Pagina Historial Weather Underground text

Diari Resum Juliol 26, 2017 Unitats:  Mètric    Imperial   Tant
« Previous Dia
SegĂźent Dia »
Diari Setmana Mensual Anual Personalitzada
  Maxima: Minima: Media:
Temperatura: 29.9 °C 17.6 °C 24 °C
Punt de rosada: 16.9 °C 9.7 °C 13.9 °C
Humitat: 76 % 38 % 54 %
Wind Speed: 22.2 km/h 0.0 km/h 6.3 km/h
RĂ fegues de vent: 22.2 km/h - -
Vent:- - SSE
Pression baro: 1014.8 hPa 1010.7 hPa -
Precipitacions: 0.0 mm    
Historical Graphs
 
 
Dades de taula per Juliol 26, 2017
Temps Temperatura Punt de rosada Pression baro Vent Wind Speed RĂ fegues de vent Humitat Rainfall Rate (Hourly)
00:04 22.3 °C 16.6 °C 1011.7 hPa NNE 3.7 km/h 3.7 km/h 70 % 0.0 mm
00:05 19.6 °C 10.8 °C 1010.7 hPa NNE 4.8 km/h 4.8 km/h 57 % 0.0 mm
00:09 22.3 °C 16.6 °C 1011.7 hPa NE 3.7 km/h 3.7 km/h 70 % 0.0 mm
00:14 22.2 °C 16.7 °C 1011.7 hPa East 3.7 km/h 3.7 km/h 71 % 0.0 mm
00:15 19.3 °C 10.3 °C 1010.7 hPa SW 1.6 km/h 3.2 km/h 56 % 0.0 mm
00:19 22.2 °C 16.7 °C 1011.7 hPa NNE 4.7 km/h 4.7 km/h 71 % 0.0 mm
00:20 22.2 °C 16.7 °C 1011.7 hPa NNE 3.9 km/h 3.9 km/h 71 % 0.0 mm
00:25 22.1 °C 16.6 °C 1011.7 hPa NE 5.6 km/h 5.6 km/h 71 % 0.0 mm
00:30 22.1 °C 16.6 °C 1011.7 hPa NE 7.4 km/h 7.4 km/h 71 % 0.0 mm
00:35 22.0 °C 16.5 °C 1011.7 hPa NE 9.5 km/h 9.5 km/h 71 % 0.0 mm
00:40 21.9 °C 16.6 °C 1011.7 hPa NNE 7.4 km/h 7.4 km/h 72 % 0.0 mm
00:45 21.9 °C 16.6 °C 1011.7 hPa NNE 5.6 km/h 5.6 km/h 72 % 0.0 mm
00:50 21.8 °C 16.5 °C 1011.7 hPa ENE 5.6 km/h 5.6 km/h 72 % 0.0 mm
00:55 21.7 °C 16.4 °C 1011.7 hPa NNE 7.4 km/h 7.4 km/h 72 % 0.0 mm
01:05 18.4 °C 10.0 °C 1012.8 hPa Calm   1.6 km/h 58 % 0.0 mm
01:15 18.3 °C 9.9 °C 1012.8 hPa Calm     58 % 0.0 mm
01:25 18.2 °C 9.8 °C 1011.7 hPa Calm   1.6 km/h 58 % 0.0 mm
01:35 17.9 °C 9.8 °C 1011.7 hPa WSW 1.6 km/h 3.2 km/h 59 % 0.0 mm
01:45 17.6 °C 9.7 °C 1011.7 hPa WSW 1.6 km/h 1.6 km/h 60 % 0.0 mm
01:55 17.7 °C 9.8 °C 1012.8 hPa SW 1.6 km/h 3.2 km/h 60 % 0.0 mm
02:05 17.6 °C 9.7 °C 1012.8 hPa Calm   1.6 km/h 60 % 0.0 mm
02:15 17.8 °C 9.9 °C 1012.8 hPa SW 1.6 km/h 3.2 km/h 60 % 0.0 mm
02:25 17.8 °C 9.9 °C 1012.8 hPa SW 3.2 km/h 3.2 km/h 60 % 0.0 mm
02:35 17.7 °C 10.1 °C 1012.8 hPa SW 1.6 km/h 3.2 km/h 61 % 0.0 mm
02:45 17.7 °C 10.1 °C 1012.8 hPa SW 1.6 km/h 1.6 km/h 61 % 0.0 mm
02:55 18.1 °C 10.4 °C 1013.8 hPa SW 1.6 km/h 1.6 km/h 61 % 0.0 mm
03:05 18.8 °C 10.9 °C 1013.8 hPa WSW 1.6 km/h 3.2 km/h 60 % 0.0 mm
03:15 19.7 °C 11.2 °C 1013.8 hPa Calm   4.8 km/h 58 % 0.0 mm
03:25 20.2 °C 11.1 °C 1012.8 hPa Calm   3.2 km/h 56 % 0.0 mm
03:35 20.2 °C 11.1 °C 1013.8 hPa Calm   3.2 km/h 56 % 0.0 mm
03:45 19.6 °C 10.6 °C 1013.8 hPa NE 3.2 km/h 4.8 km/h 56 % 0.0 mm
03:55 19.7 °C 10.7 °C 1013.8 hPa ENE 3.2 km/h 4.8 km/h 56 % 0.0 mm
04:05 19.6 °C 10.8 °C 1013.8 hPa NE 3.2 km/h 6.4 km/h 57 % 0.0 mm
04:15 19.8 °C 10.8 °C 1013.8 hPa NNE 4.8 km/h 6.4 km/h 56 % 0.0 mm
04:25 20.2 °C 10.9 °C 1013.8 hPa NE 3.2 km/h 8.0 km/h 55 % 0.0 mm
04:35 20.4 °C 11.1 °C 1012.8 hPa ENE 3.2 km/h 3.2 km/h 55 % 0.0 mm
04:45 20.8 °C 11.4 °C 1012.8 hPa SE 3.2 km/h 3.2 km/h 55 % 0.0 mm
04:55 20.8 °C 11.2 °C 1013.8 hPa SSW 1.6 km/h 4.8 km/h 54 % 0.0 mm
05:05 21.2 °C 11.5 °C 1013.8 hPa SSE 1.6 km/h 3.2 km/h 54 % 0.0 mm
05:15 21.6 °C 11.6 °C 1013.8 hPa NNE 1.6 km/h 3.2 km/h 53 % 0.0 mm
05:25 22.2 °C 12.2 °C 1013.8 hPa WNW 1.6 km/h 3.2 km/h 53 % 0.0 mm
05:35 22.3 °C 11.9 °C 1013.8 hPa NE 1.6 km/h 6.4 km/h 52 % 0.0 mm
10:34 22.3 °C 11.9 °C 1013.8 hPa NNE 1.9 km/h 5.0 km/h 52 % 0.0 mm
10:39 22.8 °C 12.4 °C 1013.8 hPa North 5.8 km/h 5.8 km/h 52 % 0.0 mm
10:44 22.4 °C 12.1 °C 1013.8 hPa NE 7.4 km/h 7.4 km/h 52 % 0.0 mm
10:49 22.9 °C 12.5 °C 1013.8 hPa NNE 5.6 km/h 5.6 km/h 52 % 0.0 mm
10:54 23.1 °C 12.1 °C 1013.8 hPa NNE 5.6 km/h 5.6 km/h 50 % 0.0 mm
10:59 23.3 °C 12.3 °C 1013.8 hPa NW 4.2 km/h   50 % 0.0 mm
11:04 23.5 °C 12.5 °C 1013.8 hPa East 5.6 km/h 5.6 km/h 50 % 0.0 mm
11:09 23.4 °C 12.4 °C 1013.8 hPa NNE 8.7 km/h 8.7 km/h 50 % 0.0 mm
11:14 23.0 °C 11.7 °C 1013.8 hPa SSE 5.8 km/h 5.8 km/h 49 % 0.0 mm
11:19 23.5 °C 11.8 °C 1013.8 hPa South 6.9 km/h 6.9 km/h 48 % 0.0 mm
11:24 24.4 °C 13.0 °C 1013.8 hPa SSE 7.4 km/h 7.4 km/h 49 % 0.0 mm
11:29 24.6 °C 12.8 °C 1013.8 hPa South 5.6 km/h 5.6 km/h 48 % 0.0 mm
11:34 24.9 °C 13.4 °C 1013.8 hPa NNE 7.4 km/h 7.4 km/h 49 % 0.0 mm
11:39 25.1 °C 13.3 °C 1013.8 hPa NNW 5.6 km/h 5.6 km/h 48 % 0.0 mm
11:44 25.8 °C 13.9 °C 1013.8 hPa SW 6.4 km/h 6.4 km/h 48 % 0.0 mm
11:49 25.9 °C 14.1 °C 1013.8 hPa SSW 7.4 km/h 7.4 km/h 48 % 0.0 mm
11:54 26.1 °C 13.9 °C 1013.8 hPa SW 5.6 km/h 6.1 km/h 47 % 0.0 mm
11:59 26.2 °C 14.0 °C 1013.8 hPa SW 9.3 km/h 9.3 km/h 47 % 0.0 mm
12:04 26.2 °C 14.0 °C 1012.8 hPa SW 13.0 km/h 13.0 km/h 47 % 0.0 mm
12:09 26.3 °C 14.1 °C 1012.8 hPa WSW 13.0 km/h 13.0 km/h 47 % 0.0 mm
12:14 26.6 °C 14.1 °C 1012.8 hPa SE 5.6 km/h 5.6 km/h 46 % 0.0 mm
12:19 26.8 °C 14.6 °C 1012.8 hPa East 6.1 km/h 6.1 km/h 47 % 0.0 mm
12:24 27.2 °C 14.2 °C 1012.8 hPa SW 7.4 km/h 7.4 km/h 45 % 0.0 mm
12:29 27.5 °C 14.5 °C 1012.8 hPa SW 5.0 km/h 5.0 km/h 45 % 0.0 mm
12:34 27.6 °C 14.2 °C 1012.8 hPa WSW 10.3 km/h 10.3 km/h 44 % 0.0 mm
12:39 27.4 °C 13.7 °C 1012.8 hPa SSE 9.3 km/h 9.3 km/h 43 % 0.0 mm
12:44 27.7 °C 14.0 °C 1012.8 hPa SSE 7.4 km/h 7.4 km/h 43 % 0.0 mm
12:49 27.7 °C 14.0 °C 1012.8 hPa ESE 7.4 km/h 7.4 km/h 43 % 0.0 mm
12:54 27.8 °C 13.7 °C 1012.8 hPa SSW 5.8 km/h 5.8 km/h 42 % 0.0 mm
12:59 27.9 °C 14.2 °C 1012.8 hPa SSW 13.0 km/h 13.0 km/h 43 % 0.0 mm
13:04 28.6 °C 14.8 °C 1011.7 hPa East 5.0 km/h 5.0 km/h 43 % 0.0 mm
13:05 28.3 °C 14.2 °C 1011.7 hPa SSE 7.4 km/h 7.4 km/h 42 % 0.0 mm
13:10 27.8 °C 13.3 °C 1011.7 hPa SE 7.6 km/h 7.6 km/h 41 % 0.0 mm
13:15 27.7 °C 13.6 °C 1011.7 hPa SW 3.7 km/h 3.7 km/h 42 % 0.0 mm
13:20 28.6 °C 14.4 °C 1011.7 hPa SW 11.1 km/h 11.1 km/h 42 % 0.0 mm
13:25 28.6 °C 14.4 °C 1011.7 hPa SW 7.4 km/h 7.4 km/h 42 % 0.0 mm
13:30 29.0 °C 14.1 °C 1011.7 hPa SSE 7.4 km/h 7.4 km/h 40 % 0.0 mm
13:37 29.4 °C 14.0 °C 1011.7 hPa SSW 5.0 km/h 5.0 km/h 39 % 0.0 mm
13:42 29.3 °C 13.9 °C 1011.7 hPa West 5.6 km/h 5.6 km/h 39 % 0.0 mm
13:47 29.4 °C 14.4 °C 1011.7 hPa SW 13.7 km/h 13.7 km/h 40 % 0.0 mm
13:52 29.2 °C 14.2 °C 1011.7 hPa WSW 9.3 km/h 9.3 km/h 40 % 0.0 mm
13:57 28.9 °C 13.9 °C 1011.7 hPa SSW 11.1 km/h 11.1 km/h 40 % 0.0 mm
14:02 29.4 °C 14.0 °C 1011.7 hPa SE 5.6 km/h 5.6 km/h 39 % 0.0 mm
14:07 29.7 °C 14.7 °C 1011.7 hPa SSW 14.0 km/h 14.0 km/h 40 % 0.0 mm
14:08 29.7 °C 14.7 °C 1011.7 hPa WSW 14.8 km/h 14.8 km/h 40 % 0.0 mm
14:13 29.8 °C 14.3 °C 1011.7 hPa SSW 9.3 km/h 9.3 km/h 39 % 0.0 mm
14:18 29.8 °C 14.3 °C 1011.7 hPa NNW 5.6 km/h 5.6 km/h 39 % 0.0 mm
14:19 29.7 °C 14.3 °C 1011.7 hPa WNW 5.6 km/h 5.6 km/h 39 % 0.0 mm
14:24 29.5 °C 14.1 °C 1011.7 hPa NNE 3.7 km/h 4.2 km/h 39 % 0.0 mm
14:29 29.9 °C 14.1 °C 1011.7 hPa South 9.3 km/h 9.3 km/h 38 % 0.0 mm
14:34 29.8 °C 14.7 °C 1011.7 hPa South 9.3 km/h 9.3 km/h 40 % 0.0 mm
14:39 29.0 °C 14.4 °C 1011.7 hPa SW 14.8 km/h 14.8 km/h 41 % 0.0 mm
14:44 27.7 °C 14.0 °C 1011.7 hPa SSE 13.0 km/h 13.0 km/h 43 % 0.0 mm
14:49 27.3 °C 14.3 °C 1011.7 hPa ESE 13.0 km/h 13.0 km/h 45 % 0.0 mm
14:54 27.5 °C 14.5 °C 1011.7 hPa SSE 13.0 km/h 13.0 km/h 45 % 0.0 mm
14:59 27.6 °C 14.9 °C 1011.7 hPa SE 9.3 km/h 9.5 km/h 46 % 0.0 mm
15:04 27.9 °C 15.2 °C 1011.7 hPa SSE 11.1 km/h 11.1 km/h 46 % 0.0 mm
15:09 27.3 °C 15.0 °C 1011.7 hPa South 9.3 km/h 9.3 km/h 47 % 0.0 mm
15:14 27.5 °C 15.2 °C 1011.7 hPa SE 9.3 km/h 9.3 km/h 47 % 0.0 mm
15:19 26.9 °C 14.9 °C 1011.7 hPa South 13.0 km/h 13.0 km/h 48 % 0.0 mm
15:24 26.4 °C 14.8 °C 1011.7 hPa East 14.0 km/h 14.0 km/h 49 % 0.0 mm
15:25 26.4 °C 14.8 °C 1011.7 hPa East 18.5 km/h 18.5 km/h 49 % 0.0 mm
15:30 25.9 °C 14.7 °C 1011.7 hPa ESE 13.0 km/h 13.0 km/h 50 % 0.0 mm
15:35 26.5 °C 15.2 °C 1011.7 hPa WSW 3.9 km/h 3.9 km/h 50 % 0.0 mm
15:40 26.1 °C 15.2 °C 1011.7 hPa ESE 12.2 km/h 12.2 km/h 51 % 0.0 mm
15:45 25.7 °C 14.8 °C 1011.7 hPa East 16.7 km/h 16.7 km/h 51 % 0.0 mm
15:50 25.4 °C 14.8 °C 1011.7 hPa East 9.3 km/h 9.3 km/h 52 % 0.0 mm
15:55 25.7 °C 15.1 °C 1011.7 hPa SW 13.0 km/h 13.0 km/h 52 % 0.0 mm
16:00 25.9 °C 15.3 °C 1011.7 hPa East 5.8 km/h 5.8 km/h 52 % 0.0 mm
16:05 26.3 °C 15.7 °C 1011.7 hPa SW 9.3 km/h 9.3 km/h 52 % 0.0 mm
16:10 26.7 °C 15.7 °C 1011.7 hPa SSE 5.0 km/h 5.3 km/h 51 % 0.0 mm
16:15 27.2 °C 15.9 °C 1011.7 hPa SW 9.3 km/h 9.3 km/h 50 % 0.0 mm
16:20 28.3 °C 16.6 °C 1011.7 hPa SW 6.4 km/h 6.4 km/h 49 % 0.0 mm
16:25 27.6 °C 15.9 °C 1011.7 hPa SSW 14.8 km/h 14.8 km/h 49 % 0.0 mm
16:26 27.6 °C 15.9 °C 1011.7 hPa SW 14.8 km/h 14.8 km/h 49 % 0.0 mm
16:31 27.7 °C 16.0 °C 1011.7 hPa SSE 9.3 km/h 9.3 km/h 49 % 0.0 mm
16:36 28.4 °C 16.7 °C 1010.7 hPa SSW 7.4 km/h 7.4 km/h 49 % 0.0 mm
16:41 28.9 °C 16.8 °C 1010.7 hPa SSE 5.6 km/h 5.6 km/h 48 % 0.0 mm
16:46 29.2 °C 16.7 °C 1010.7 hPa WSW 5.8 km/h 5.8 km/h 47 % 0.0 mm
16:51 29.3 °C 16.5 °C 1011.7 hPa West 9.3 km/h 9.3 km/h 46 % 0.0 mm
16:56 29.8 °C 16.9 °C 1011.7 hPa SE 5.6 km/h 5.6 km/h 46 % 0.0 mm
17:01 28.5 °C 16.1 °C 1011.7 hPa NW 14.8 km/h 14.8 km/h 47 % 0.0 mm
17:06 28.7 °C 16.3 °C 1011.7 hPa South 7.4 km/h 7.4 km/h 47 % 0.0 mm
17:11 27.9 °C 15.6 °C 1011.7 hPa NNE 9.5 km/h 9.5 km/h 47 % 0.0 mm
17:16 28.1 °C 16.1 °C 1011.7 hPa SW 20.4 km/h 20.4 km/h 48 % 0.0 mm
17:21 28.2 °C 16.2 °C 1011.7 hPa ESE 18.5 km/h 18.5 km/h 48 % 0.0 mm
17:26 27.1 °C 15.4 °C 1011.7 hPa East 11.1 km/h 11.1 km/h 49 % 0.0 mm
17:31 26.8 °C 15.8 °C 1011.7 hPa NNE 22.2 km/h 22.2 km/h 51 % 0.0 mm
17:36 26.4 °C 15.4 °C 1011.7 hPa ESE 14.8 km/h 15.6 km/h 51 % 0.0 mm
17:41 26.4 °C 15.8 °C 1011.7 hPa NNE 20.4 km/h 20.4 km/h 52 % 0.0 mm
17:46 26.1 °C 15.5 °C 1011.7 hPa ESE 11.1 km/h 11.4 km/h 52 % 0.0 mm
17:51 26.0 °C 15.4 °C 1011.7 hPa NNW 13.0 km/h 13.0 km/h 52 % 0.0 mm
17:56 26.3 °C 15.9 °C 1011.7 hPa ESE 16.7 km/h 16.7 km/h 53 % 0.0 mm
18:01 26.2 °C 15.9 °C 1011.7 hPa East 20.4 km/h 20.4 km/h 53 % 0.0 mm
18:06 25.9 °C 15.6 °C 1011.7 hPa East 14.8 km/h 14.8 km/h 53 % 0.0 mm
18:11 25.9 °C 15.6 °C 1011.7 hPa ENE 11.1 km/h 11.1 km/h 53 % 0.0 mm
18:16 26.1 °C 15.8 °C 1011.7 hPa ESE 14.8 km/h 14.8 km/h 53 % 0.0 mm
18:21 25.8 °C 15.5 °C 1011.7 hPa ESE 16.1 km/h 16.1 km/h 53 % 0.0 mm
18:26 25.6 °C 15.3 °C 1011.7 hPa SE 14.0 km/h 14.0 km/h 53 % 0.0 mm
18:31 25.7 °C 15.4 °C 1011.7 hPa ENE 14.8 km/h 14.8 km/h 53 % 0.0 mm
18:36 25.7 °C 15.4 °C 1011.7 hPa NNE 10.3 km/h 10.3 km/h 53 % 0.0 mm
18:41 25.8 °C 15.2 °C 1011.7 hPa ESE 9.3 km/h 9.3 km/h 52 % 0.0 mm
18:46 25.7 °C 15.1 °C 1011.7 hPa ESE 13.0 km/h 13.0 km/h 52 % 0.0 mm
18:51 25.8 °C 15.2 °C 1011.7 hPa ESE 9.3 km/h 9.3 km/h 52 % 0.0 mm
18:56 25.8 °C 14.9 °C 1011.7 hPa ESE 11.1 km/h 11.1 km/h 51 % 0.0 mm
19:01 25.6 °C 14.7 °C 1011.7 hPa ENE 9.3 km/h 9.3 km/h 51 % 0.0 mm
19:06 25.4 °C 14.2 °C 1011.7 hPa East 11.1 km/h 11.1 km/h 50 % 0.0 mm
19:11 25.5 °C 14.3 °C 1011.7 hPa ENE 9.3 km/h 9.5 km/h 50 % 0.0 mm
19:15 21.6 °C 14.3 °C 1013.8 hPa Calm     63 % 0.0 mm
19:16 25.6 °C 14.4 °C 1011.7 hPa SE 7.4 km/h 7.4 km/h 50 % 0.0 mm
19:21 25.5 °C 14.3 °C 1010.7 hPa East 9.3 km/h 9.3 km/h 50 % 0.0 mm
19:25 21.3 °C 14.2 °C 1013.8 hPa NE 1.6 km/h 1.6 km/h 64 % 0.0 mm
19:26 25.4 °C 14.2 °C 1010.7 hPa ESE 12.6 km/h 12.6 km/h 50 % 0.0 mm
19:31 25.3 °C 14.1 °C 1010.7 hPa ESE 9.5 km/h 9.5 km/h 50 % 0.0 mm
19:35 21.1 °C 14.3 °C 1013.8 hPa Calm     65 % 0.0 mm
19:36 25.3 °C 14.1 °C 1011.7 hPa East 13.0 km/h 13.0 km/h 50 % 0.0 mm
19:41 25.2 °C 14.3 °C 1011.7 hPa ENE 14.8 km/h 14.8 km/h 51 % 0.0 mm
19:45 21.1 °C 14.3 °C 1013.8 hPa Calm     65 % 0.0 mm
19:46 25.1 °C 14.3 °C 1011.7 hPa ENE 9.3 km/h 9.3 km/h 51 % 0.0 mm
19:51 25.0 °C 14.2 °C 1011.7 hPa ESE 16.7 km/h 16.7 km/h 51 % 0.0 mm
19:55 21.0 °C 14.4 °C 1012.8 hPa Calm     66 % 0.0 mm
19:56 25.0 °C 14.2 °C 1011.7 hPa ESE 9.3 km/h 9.3 km/h 51 % 0.0 mm
20:01 24.9 °C 14.4 °C 1011.7 hPa East 9.7 km/h 9.7 km/h 52 % 0.0 mm
20:05 20.9 °C 14.3 °C 1012.8 hPa Calm     66 % 0.0 mm
20:06 24.7 °C 14.2 °C 1011.7 hPa ESE 14.8 km/h 14.8 km/h 52 % 0.0 mm
20:11 24.7 °C 14.2 °C 1011.7 hPa East 8.7 km/h 8.7 km/h 52 % 0.0 mm
20:15 20.9 °C 14.6 °C 1012.8 hPa Calm     67 % 0.0 mm
20:16 24.7 °C 14.2 °C 1011.7 hPa ENE 9.3 km/h 9.3 km/h 52 % 0.0 mm
20:21 24.6 °C 14.1 °C 1010.7 hPa ENE 9.7 km/h 9.7 km/h 52 % 0.0 mm
20:25 20.9 °C 14.6 °C 1012.8 hPa Calm     67 % 0.0 mm
20:26 24.5 °C 14.0 °C 1010.7 hPa ESE 9.3 km/h 9.3 km/h 52 % 0.0 mm
20:31 24.4 °C 13.9 °C 1010.7 hPa ESE 9.3 km/h 9.3 km/h 52 % 0.0 mm
20:35 20.8 °C 14.4 °C 1013.8 hPa Calm   3.2 km/h 67 % 0.0 mm
20:36 24.4 °C 13.9 °C 1011.7 hPa East 5.6 km/h 5.6 km/h 52 % 0.0 mm
20:41 24.3 °C 13.8 °C 1011.7 hPa ESE 7.4 km/h 7.4 km/h 52 % 0.0 mm
20:45 20.8 °C 14.4 °C 1013.8 hPa Calm   3.2 km/h 67 % 0.0 mm
20:46 24.2 °C 13.7 °C 1011.7 hPa SE 7.4 km/h 7.4 km/h 52 % 0.0 mm
20:51 24.2 °C 13.7 °C 1011.7 hPa East 5.6 km/h 5.6 km/h 52 % 0.0 mm
20:55 20.7 °C 14.3 °C 1013.8 hPa Calm     67 % 0.0 mm
20:56 24.1 °C 13.6 °C 1011.7 hPa ENE 7.4 km/h 7.4 km/h 52 % 0.0 mm
21:01 24.0 °C 13.6 °C 1011.7 hPa SE 6.1 km/h 6.1 km/h 52 % 0.0 mm
21:05 20.4 °C 14.3 °C 1013.8 hPa Calm     68 % 0.0 mm
21:06 24.0 °C 13.6 °C 1011.7 hPa Calm     52 % 0.0 mm
21:11 23.9 °C 13.4 °C 1011.7 hPa WSW 3.7 km/h 4.2 km/h 52 % 0.0 mm
21:15 20.2 °C 14.3 °C 1013.8 hPa Calm   3.2 km/h 69 % 0.0 mm
21:16 23.9 °C 13.7 °C 1011.7 hPa SW 3.9 km/h 3.9 km/h 53 % 0.0 mm
21:21 23.8 °C 13.7 °C 1011.7 hPa Calm     53 % 0.0 mm
21:25 20.0 °C 14.1 °C 1013.8 hPa Calm   3.2 km/h 69 % 0.0 mm
21:26 23.8 °C 13.7 °C 1011.7 hPa SW 3.7 km/h 3.7 km/h 53 % 0.0 mm
21:31 23.7 °C 13.6 °C 1011.7 hPa Calm     53 % 0.0 mm
21:35 19.7 °C 14.3 °C 1013.8 hPa Calm   3.2 km/h 71 % 0.0 mm
21:36 23.6 °C 13.4 °C 1012.8 hPa West 1.9 km/h   53 % 0.0 mm
21:41 23.5 °C 13.4 °C 1012.8 hPa East 2.6 km/h   53 % 0.0 mm
21:45 19.5 °C 13.9 °C 1013.8 hPa Calm     70 % 0.0 mm
21:46 23.3 °C 13.2 °C 1012.8 hPa NE 1.9 km/h   53 % 0.0 mm
21:51 23.2 °C 13.1 °C 1012.8 hPa NE 2.6 km/h 2.6 km/h 53 % 0.0 mm
21:55 19.4 °C 14.0 °C 1012.8 hPa Calm     71 % 0.0 mm
21:56 23.2 °C 13.1 °C 1012.8 hPa NNE 1.9 km/h 1.9 km/h 53 % 0.0 mm
22:01 23.1 °C 13.0 °C 1012.8 hPa NNE 3.7 km/h 3.7 km/h 53 % 0.0 mm
22:05 19.4 °C 14.0 °C 1013.8 hPa SW 1.6 km/h 1.6 km/h 71 % 0.0 mm
22:06 23.1 °C 13.0 °C 1013.8 hPa Calm     53 % 0.0 mm
22:11 23.0 °C 12.6 °C 1013.8 hPa SE 3.7 km/h 3.7 km/h 52 % 0.0 mm
22:15 19.3 °C 13.9 °C 1013.8 hPa SW 1.6 km/h 3.2 km/h 71 % 0.0 mm
22:16 22.9 °C 12.8 °C 1013.8 hPa SW 2.3 km/h   53 % 0.0 mm
22:21 22.9 °C 12.8 °C 1013.8 hPa WSW 1.9 km/h   53 % 0.0 mm
22:25 19.2 °C 14.1 °C 1014.8 hPa Calm   1.6 km/h 72 % 0.0 mm
22:26 22.8 °C 12.7 °C 1013.8 hPa Calm     53 % 0.0 mm
22:31 22.7 °C 12.6 °C 1013.8 hPa NW 1.9 km/h 1.9 km/h 53 % 0.0 mm
22:35 19.1 °C 13.9 °C 1013.8 hPa Calm     72 % 0.0 mm
22:36 22.7 °C 12.9 °C 1013.8 hPa North 1.9 km/h 1.9 km/h 54 % 0.0 mm
22:41 22.7 °C 13.2 °C 1013.8 hPa Calm     55 % 0.0 mm
22:45 19.1 °C 14.2 °C 1013.8 hPa SW 1.6 km/h 1.6 km/h 73 % 0.0 mm
22:46 22.6 °C 13.4 °C 1013.8 hPa WSW 2.3 km/h 2.3 km/h 56 % 0.0 mm
22:51 22.6 °C 13.4 °C 1013.8 hPa WSW 3.7 km/h 3.7 km/h 56 % 0.0 mm
22:55 19.1 °C 14.2 °C 1013.8 hPa Calm     73 % 0.0 mm
22:56 22.5 °C 13.6 °C 1013.8 hPa WSW 3.2 km/h 3.2 km/h 57 % 0.0 mm
23:01 22.5 °C 13.6 °C 1013.8 hPa WSW 3.7 km/h 3.7 km/h 57 % 0.0 mm
23:05 19.1 °C 14.2 °C 1013.8 hPa Calm     73 % 0.0 mm
23:06 22.4 °C 13.7 °C 1013.8 hPa WNW 1.9 km/h 1.9 km/h 58 % 0.0 mm
23:11 22.3 °C 13.9 °C 1013.8 hPa West 1.9 km/h   59 % 0.0 mm
23:15 19.0 °C 14.1 °C 1013.8 hPa Calm     73 % 0.0 mm
23:16 22.2 °C 13.8 °C 1013.8 hPa SW 1.9 km/h 1.9 km/h 59 % 0.0 mm
23:21 22.1 °C 13.9 °C 1013.8 hPa Calm     60 % 0.0 mm
23:25 19.0 °C 14.3 °C 1013.8 hPa SW 1.6 km/h 3.2 km/h 74 % 0.0 mm
23:26 22.1 °C 13.9 °C 1013.8 hPa WSW 3.7 km/h 3.7 km/h 60 % 0.0 mm
23:31 22.1 °C 13.9 °C 1013.8 hPa West 5.0 km/h 5.0 km/h 60 % 0.0 mm
23:35 18.9 °C 14.4 °C 1013.8 hPa Calm   3.2 km/h 75 % 0.0 mm
23:36 22.1 °C 14.2 °C 1013.8 hPa WSW 2.3 km/h 2.3 km/h 61 % 0.0 mm
23:41 22.0 °C 14.1 °C 1013.8 hPa West 1.9 km/h   61 % 0.0 mm
23:45 18.9 °C 14.4 °C 1013.8 hPa Calm   1.6 km/h 75 % 0.0 mm
23:46 21.9 °C 14.3 °C 1013.8 hPa Calm     62 % 0.0 mm
23:51 21.9 °C 14.3 °C 1013.8 hPa Calm     62 % 0.0 mm
23:55 18.9 °C 14.6 °C 1013.8 hPa Calm   1.6 km/h 76 % 0.0 mm
23:56 21.8 °C 14.4 °C 1013.8 hPa Calm     63 % 0.0 mm
Meteo Sesrovires
Elogis d' Weather Underground - 3.75 mb

Guio original per  Jim McMurry - jmcmurry@mwt.net Adaptat per a la plantilla per  Wim van der Kuil - Leuven-Template.eu

Trobareu la nostra informacio del temps tambe a:

Weather Underground

AWEKAS